Time;durP1;ratioP1;P1;durP2;ratioP2;P2;SDS_P1;SDS_P2;PMS_P1;PMS_P2;Temp;Humidity;BMP_temperature;BMP_pressure;BME280_temperature;BME280_humidity;BME280_pressure;Samples;Min_cycle;Max_cycle;Signal;HPM_P1;HPM_P2
2022/05/07 00:02:09;;;;;;;2.63;2.53;;;12.80;99.90;;;;;;5162928;28;20438;-78
2022/05/07 00:04:43;;;;;;;2.25;2.15;;;12.90;99.90;;;;;;5155906;28;20394;-77
2022/05/07 00:07:15;;;;;;;1.67;1.63;;;12.80;99.90;;;;;;5174118;28;20336;-79
2022/05/07 00:09:47;;;;;;;1.35;1.35;;;12.80;99.90;;;;;;5144908;28;20045;-79
2022/05/07 00:12:21;;;;;;;2.03;1.92;;;12.80;99.90;;;;;;5162506;28;20029;-78
2022/05/07 00:14:53;;;;;;;1.05;1.05;;;12.80;99.90;;;;;;5144622;28;20026;-78
2022/05/07 00:20:17;;;;;;;1.20;1.20;;;12.80;99.90;;;;;;5132197;28;20073;-79
2022/05/07 00:22:48;;;;;;;2.03;1.90;;;12.80;99.90;;;;;;5163867;28;20026;-78
2022/05/07 00:25:20;;;;;;;2.00;1.92;;;12.70;99.90;;;;;;5145773;28;20030;-76
2022/05/07 00:27:51;;;;;;;0.90;0.90;;;12.70;99.90;;;;;;5161000;28;20030;-78
2022/05/07 00:30:27;;;;;;;2.10;2.00;;;12.60;99.90;;;;;;5160013;28;20044;-80
2022/05/07 00:33:00;;;;;;;1.80;1.70;;;12.70;99.90;;;;;;5152004;28;20014;-79
2022/05/07 00:35:31;;;;;;;0.82;0.82;;;12.60;99.90;;;;;;5158404;28;20061;-78
2022/05/07 00:38:07;;;;;;;1.10;1.10;;;12.60;99.90;;;;;;5145294;28;20052;-80
2022/05/07 00:40:39;;;;;;;1.95;1.45;;;12.60;99.90;;;;;;5162598;28;20022;-75
2022/05/07 00:43:15;;;;;;;1.02;1.02;;;12.60;99.90;;;;;;5164501;28;20038;-77
2022/05/07 00:45:47;;;;;;;0.93;0.93;;;12.50;99.90;;;;;;5165294;28;20283;-78
2022/05/07 00:48:21;;;;;;;0.80;0.80;;;12.50;99.90;;;;;;5164162;28;20069;-77
2022/05/07 00:53:44;;;;;;;0.88;0.88;;;12.60;99.90;;;;;;5177099;28;20030;-78
2022/05/07 00:56:18;;;;;;;2.83;2.25;;;12.50;99.90;;;;;;5152772;28;20022;-78
2022/05/07 00:58:53;;;;;;;1.45;1.35;;;12.60;99.90;;;;;;5145302;28;20208;-78
2022/05/07 01:01:26;;;;;;;1.10;1.10;;;12.60;99.90;;;;;;5146592;28;20030;-79
2022/05/07 01:03:58;;;;;;;0.85;0.85;;;12.60;99.90;;;;;;5164985;28;20034;-77
2022/05/07 01:06:31;;;;;;;0.90;0.90;;;12.60;99.90;;;;;;5166704;28;20437;-78
2022/05/07 01:09:05;;;;;;;1.00;1.00;;;12.70;99.90;;;;;;5162417;28;20026;-76
2022/05/07 01:11:41;;;;;;;1.23;1.23;;;12.70;99.90;;;;;;5159426;28;20276;-77
2022/05/07 01:14:18;;;;;;;1.05;1.05;;;12.70;99.90;;;;;;5161240;28;20220;-76
2022/05/07 01:16:49;;;;;;;1.35;1.35;;;12.70;99.90;;;;;;5143130;28;20026;-77
2022/05/07 01:19:20;;;;;;;1.02;1.02;;;12.60;99.90;;;;;;5175510;28;20026;-78
2022/05/07 01:21:51;;;;;;;1.30;1.30;;;12.60;99.90;;;;;;5143756;28;20037;-78
2022/05/07 01:24:24;;;;;;;0.80;0.80;;;12.60;99.90;;;;;;5161732;28;20036;-77
2022/05/07 01:26:56;;;;;;;0.77;0.77;;;12.60;99.90;;;;;;5164680;28;20038;-76
2022/05/07 01:29:29;;;;;;;0.90;0.90;;;12.60;99.90;;;;;;5155113;28;20080;-78
2022/05/07 01:32:02;;;;;;;1.55;1.45;;;12.60;99.90;;;;;;5124199;28;20027;-76
2022/05/07 01:34:37;;;;;;;0.85;0.85;;;12.60;99.90;;;;;;5124548;28;20034;-77
2022/05/07 01:37:17;;;;;;;1.77;1.67;;;12.50;99.90;;;;;;5153943;28;20030;-77
2022/05/07 01:39:48;;;;;;;1.02;1.02;;;12.50;99.90;;;;;;5160841;28;20034;-76
2022/05/07 01:42:19;;;;;;;1.27;1.27;;;12.40;99.90;;;;;;5160602;28;20030;-77
2022/05/07 01:44:51;;;;;;;1.13;1.13;;;12.40;99.90;;;;;;5162252;28;20034;-77
2022/05/07 01:50:26;;;;;;;0.88;0.88;;;12.40;99.90;;;;;;5159411;28;20030;-78
2022/05/07 01:52:58;;;;;;;1.20;1.20;;;12.40;99.90;;;;;;5160686;28;20022;-78
2022/05/07 01:55:33;;;;;;;0.82;0.82;;;12.40;99.90;;;;;;5161398;28;20379;-78
2022/05/07 01:58:04;;;;;;;1.42;1.42;;;12.40;99.90;;;;;;5161285;28;20072;-77
2022/05/07 02:00:40;;;;;;;0.90;0.90;;;12.40;99.90;;;;;;5160330;28;20335;-75
2022/05/07 02:03:11;;;;;;;1.67;1.58;;;12.40;99.90;;;;;;5162164;28;20034;-77
2022/05/07 02:05:43;;;;;;;0.90;0.90;;;12.30;99.90;;;;;;5163871;28;20299;-76
2022/05/07 02:08:14;;;;;;;1.08;1.08;;;12.30;99.90;;;;;;5180419;28;20026;-77
2022/05/07 02:10:48;;;;;;;1.05;1.05;;;12.40;99.90;;;;;;5181891;28;20032;-79
2022/05/07 02:13:27;;;;;;;1.03;1.03;;;12.30;99.90;;;;;;5162835;28;20036;-77
2022/05/07 02:15:58;;;;;;;1.95;1.85;;;12.30;99.90;;;;;;5162595;28;20037;-77
2022/05/07 02:18:29;;;;;;;0.70;0.70;;;12.40;99.90;;;;;;5142625;28;20030;-79
2022/05/07 02:21:02;;;;;;;1.17;1.17;;;12.40;99.90;;;;;;5138944;28;20225;-79
2022/05/07 02:23:36;;;;;;;1.83;1.75;;;12.30;99.90;;;;;;5162636;28;20439;-78
2022/05/07 02:26:07;;;;;;;1.17;1.17;;;12.40;99.90;;;;;;5159801;28;20054;-77
2022/05/07 02:28:44;;;;;;;1.42;1.42;;;12.40;99.90;;;;;;5155833;28;20054;-79
2022/05/07 02:31:21;;;;;;;1.10;1.10;;;12.40;99.90;;;;;;5127105;28;20031;-76
2022/05/07 02:33:52;;;;;;;0.85;0.85;;;12.40;99.90;;;;;;5123749;28;20019;-78
2022/05/07 02:36:28;;;;;;;1.30;1.30;;;12.40;99.90;;;;;;5135185;28;20220;-79
2022/05/07 02:39:02;;;;;;;1.33;1.33;;;12.40;99.90;;;;;;5143401;28;20045;-79
2022/05/07 02:44:23;;;;;;;0.68;0.68;;;12.40;99.90;;;;;;5170402;28;20030;-79
2022/05/07 02:46:56;;;;;;;0.95;0.95;;;12.40;99.90;;;;;;5160098;28;20049;-77
2022/05/07 02:49:33;;;;;;;1.67;1.63;;;12.40;99.90;;;;;;5126583;28;20049;-78
2022/05/07 02:52:04;;;;;;;1.27;1.27;;;12.40;99.90;;;;;;5183421;28;20037;-80
2022/05/07 02:54:36;;;;;;;1.35;1.25;;;12.50;99.90;;;;;;5154130;28;20037;-78
2022/05/07 02:57:08;;;;;;;0.88;0.88;;;12.40;99.90;;;;;;5146487;28;20038;-78
2022/05/07 02:59:40;;;;;;;0.93;0.93;;;12.50;99.90;;;;;;5180195;28;20044;-77
2022/05/07 03:02:14;;;;;;;1.08;1.08;;;12.40;99.90;;;;;;5163073;28;20026;-78
2022/05/07 03:04:48;;;;;;;1.30;1.30;;;12.50;99.90;;;;;;5170835;28;20060;-78
2022/05/07 03:07:22;;;;;;;1.50;1.45;;;12.50;99.90;;;;;;5156089;28;20038;-78
2022/05/07 03:09:58;;;;;;;0.82;0.82;;;12.40;99.90;;;;;;5142489;28;20048;-76
2022/05/07 03:12:32;;;;;;;0.95;0.95;;;12.50;99.90;;;;;;5143174;28;20086;-77
2022/05/07 03:15:06;;;;;;;1.05;1.05;;;12.50;99.90;;;;;;5177384;28;20046;-79
2022/05/07 03:17:38;;;;;;;1.50;1.50;;;12.50;99.90;;;;;;5159309;28;20041;-80
2022/05/07 03:20:12;;;;;;;2.33;2.22;;;12.50;99.90;;;;;;5125716;28;20029;-77
2022/05/07 03:22:47;;;;;;;1.10;1.10;;;12.50;99.90;;;;;;5162337;28;20033;-78
2022/05/07 03:25:20;;;;;;;1.20;1.20;;;12.50;99.90;;;;;;5146009;28;20037;-75
2022/05/07 03:27:51;;;;;;;1.38;1.38;;;12.50;99.90;;;;;;5180505;28;20300;-78
2022/05/07 03:30:23;;;;;;;1.58;1.50;;;12.50;99.90;;;;;;5162725;28;20251;-78
2022/05/07 03:32:54;;;;;;;3.42;3.22;;;12.60;99.90;;;;;;5180826;28;20181;-77
2022/05/07 03:35:26;;;;;;;1.10;1.10;;;12.60;99.90;;;;;;5149946;28;20045;-76
2022/05/07 03:37:57;;;;;;;1.60;1.58;;;12.60;99.90;;;;;;5184518;28;20068;-80
2022/05/07 03:40:29;;;;;;;0.98;0.98;;;12.60;99.90;;;;;;5152293;28;20196;-79
2022/05/07 03:43:03;;;;;;;0.77;0.77;;;12.50;99.90;;;;;;5166999;28;20056;-77
2022/05/07 03:45:36;;;;;;;1.23;1.23;;;12.60;99.90;;;;;;5165634;28;20041;-78
2022/05/07 03:48:09;;;;;;;1.88;1.77;;;12.60;99.90;;;;;;5182707;28;20041;-79
2022/05/07 03:50:43;;;;;;;0.88;0.88;;;12.60;99.90;;;;;;5164961;28;20310;-78
2022/05/07 03:53:31;;;;;;;0.90;0.90;;;12.60;99.90;;;;;;5165757;28;20040;-77
2022/05/07 03:56:05;;;;;;;1.50;1.50;;;12.60;99.90;;;;;;5165885;28;20211;-77
2022/05/07 03:58:40;;;;;;;1.27;1.27;;;12.60;99.90;;;;;;5183804;28;20235;-79
2022/05/07 04:01:15;;;;;;;1.15;1.15;;;12.70;99.90;;;;;;5165439;28;20040;-76
2022/05/07 04:03:47;;;;;;;2.72;2.55;;;12.60;99.90;;;;;;5176066;28;20033;-79
2022/05/07 04:06:21;;;;;;;1.08;1.08;;;12.60;99.90;;;;;;5151593;28;20035;-76
2022/05/07 04:08:53;;;;;;;2.58;2.47;;;12.60;99.90;;;;;;5163151;28;20041;-77
2022/05/07 04:11:24;;;;;;;1.17;1.17;;;12.60;99.90;;;;;;5145878;28;20389;-80
2022/05/07 04:13:55;;;;;;;2.03;1.92;;;12.60;99.90;;;;;;5178538;28;20018;-79
2022/05/07 04:16:27;;;;;;;1.05;1.05;;;12.60;99.90;;;;;;5166899;28;20028;-78
2022/05/07 04:18:58;;;;;;;1.27;1.27;;;12.70;99.90;;;;;;5172773;28;20041;-78
2022/05/07 04:21:37;;;;;;;2.10;2.00;;;12.60;99.90;;;;;;5161027;28;20043;-78
2022/05/07 04:24:09;;;;;;;1.50;1.48;;;12.60;99.90;;;;;;5180760;28;20335;-79
2022/05/07 04:26:40;;;;;;;1.10;1.10;;;12.60;99.90;;;;;;5182480;28;20030;-76
2022/05/07 04:29:17;;;;;;;1.20;1.20;;;12.70;99.90;;;;;;5131484;28;20049;-77
2022/05/07 04:31:48;;;;;;;1.63;1.60;;;12.70;99.90;;;;;;5182487;28;20030;-78
2022/05/07 04:34:20;;;;;;;1.00;1.00;;;12.80;99.90;;;;;;5164219;28;20034;-79
2022/05/07 04:36:53;;;;;;;2.28;2.17;;;12.80;99.90;;;;;;5161049;28;20038;-77
2022/05/07 04:39:28;;;;;;;1.48;1.48;;;12.80;99.90;;;;;;5180069;28;20042;-76
2022/05/07 04:42:05;;;;;;;1.30;1.30;;;12.90;99.90;;;;;;5182049;28;20018;-77
2022/05/07 04:44:39;;;;;;;1.83;1.73;;;12.90;99.90;;;;;;5183456;28;20041;-79
2022/05/07 04:47:11;;;;;;;0.82;0.82;;;13.00;99.90;;;;;;5166585;28;20037;-78
2022/05/07 04:49:47;;;;;;;2.13;2.03;;;13.00;99.90;;;;;;5168664;28;20276;-77
2022/05/07 04:52:19;;;;;;;1.08;1.08;;;13.00;99.90;;;;;;5185838;28;20033;-75
2022/05/07 04:54:57;;;;;;;2.30;2.20;;;13.00;99.90;;;;;;5185619;28;20030;-77
2022/05/07 04:57:31;;;;;;;1.77;1.77;;;13.00;99.90;;;;;;5168554;28;20372;-76
2022/05/07 05:00:03;;;;;;;2.53;2.35;;;13.10;99.90;;;;;;5188069;28;20299;-76
2022/05/07 05:02:34;;;;;;;1.55;1.50;;;13.20;99.90;;;;;;5204591;28;20131;-77
2022/05/07 05:05:08;;;;;;;2.60;2.45;;;13.20;99.90;;;;;;5174404;28;20303;-76
2022/05/07 05:07:40;;;;;;;1.67;1.67;;;13.20;99.90;;;;;;5190890;28;20029;-78
2022/05/07 05:10:12;;;;;;;2.42;2.33;;;13.20;99.90;;;;;;5158569;28;20026;-79
2022/05/07 05:12:43;;;;;;;1.95;1.85;;;13.20;99.90;;;;;;5137792;28;20312;-78
2022/05/07 05:15:14;;;;;;;1.88;1.77;;;13.20;99.90;;;;;;5178189;28;21707;-78
2022/05/07 05:17:46;;;;;;;1.20;1.20;;;13.20;99.90;;;;;;5170477;28;20133;-77
2022/05/07 05:20:20;;;;;;;3.05;2.95;;;13.30;99.90;;;;;;5157936;28;20021;-79
2022/05/07 05:22:51;;;;;;;2.95;2.85;;;13.30;99.90;;;;;;5158444;28;20035;-77
2022/05/07 05:25:28;;;;;;;2.50;2.40;;;13.30;99.90;;;;;;5157876;28;20030;-77
2022/05/07 05:27:59;;;;;;;2.35;2.25;;;13.30;99.90;;;;;;5162678;28;20056;-77
2022/05/07 05:30:30;;;;;;;3.95;3.75;;;13.30;99.90;;;;;;5173165;28;20022;-78
2022/05/07 05:33:02;;;;;;;3.28;3.08;;;13.40;99.90;;;;;;5175879;28;20048;-77
2022/05/07 05:35:33;;;;;;;2.22;2.13;;;13.40;99.90;;;;;;5147871;28;20034;-78
2022/05/07 05:38:04;;;;;;;2.30;2.20;;;13.40;99.90;;;;;;5180645;28;20030;-78
2022/05/07 05:40:41;;;;;;;1.17;1.15;;;13.20;99.90;;;;;;5181750;28;20137;-78
2022/05/07 05:43:12;;;;;;;2.33;2.22;;;13.30;99.90;;;;;;5178978;28;20239;-79
2022/05/07 05:45:43;;;;;;;2.70;2.60;;;13.40;99.90;;;;;;5173909;28;20022;-78
2022/05/07 05:48:17;;;;;;;3.10;2.92;;;13.40;99.90;;;;;;5161140;28;20038;-79
2022/05/07 05:50:49;;;;;;;3.88;3.60;;;13.40;99.90;;;;;;5180935;28;20232;-79
2022/05/07 05:53:25;;;;;;;2.45;2.33;;;13.40;99.90;;;;;;5166920;28;20038;-77
2022/05/07 05:55:58;;;;;;;3.10;2.95;;;13.40;99.90;;;;;;5169168;28;20083;-77
2022/05/07 05:58:33;;;;;;;3.15;2.95;;;13.40;99.90;;;;;;5186871;28;20492;-77
2022/05/07 06:01:06;;;;;;;2.45;2.35;;;13.50;99.90;;;;;;5170038;28;20204;-78
2022/05/07 06:03:40;;;;;;;3.50;3.20;;;13.70;99.90;;;;;;5164620;28;20038;-77
2022/05/07 06:06:13;;;;;;;2.47;2.38;;;13.70;99.90;;;;;;5165990;28;20262;-77
2022/05/07 06:08:47;;;;;;;3.53;3.33;;;13.60;99.90;;;;;;5174098;28;20050;-78
2022/05/07 06:11:20;;;;;;;3.17;3.03;;;13.60;99.90;;;;;;5161016;28;20026;-79
2022/05/07 06:13:52;;;;;;;4.15;3.95;;;13.70;99.90;;;;;;5171485;28;20022;-79
2022/05/07 06:16:23;;;;;;;2.90;2.80;;;13.70;99.90;;;;;;5162264;28;20048;-79
2022/05/07 06:18:55;;;;;;;3.60;3.40;;;13.70;99.90;;;;;;5145843;28;20359;-78
2022/05/07 06:21:28;;;;;;;3.42;3.22;;;13.70;99.90;;;;;;5180270;28;20036;-78
2022/05/07 06:27:28;;;;;;;4.57;4.30;;;13.90;99.90;;;;;;5180999;28;20311;-79
2022/05/07 06:29:39;;;;;;;3.22;3.03;;;13.90;99.90;;;;;;5171279;28;20026;-77
2022/05/07 06:32:14;;;;;;;2.80;2.70;;;13.80;99.90;;;;;;5136394;28;20034;-81
2022/05/07 06:34:45;;;;;;;4.10;3.85;;;13.70;99.90;;;;;;5128376;28;20247;-78
2022/05/07 06:37:19;;;;;;;3.40;3.20;;;13.60;99.90;;;;;;5176961;28;20042;-79
2022/05/07 06:39:50;;;;;;;2.15;2.05;;;13.60;99.90;;;;;;5146406;28;20068;-78
2022/05/07 06:42:21;;;;;;;3.70;3.45;;;13.50;99.90;;;;;;5177870;28;20097;-76
2022/05/07 06:44:52;;;;;;;1.83;1.73;;;13.50;99.90;;;;;;5161586;28;20045;-77
2022/05/07 06:47:24;;;;;;;2.70;2.60;;;13.50;99.90;;;;;;5161158;28;20324;-77
2022/05/07 06:49:58;;;;;;;4.95;3.90;;;13.40;99.90;;;;;;5181036;28;20029;-80
2022/05/07 06:52:32;;;;;;;2.78;2.63;;;13.40;99.90;;;;;;5163371;28;20026;-78
2022/05/07 06:55:06;;;;;;;2.50;2.40;;;13.40;99.90;;;;;;5178886;28;20024;-77
2022/05/07 06:57:37;;;;;;;;;;;13.40;99.90;;;;;;5149099;28;20037;-80
2022/05/07 07:00:12;;;;;;;2.53;2.42;;;13.40;99.90;;;;;;5165070;28;19919;-80
2022/05/07 07:02:44;;;;;;;3.63;3.42;;;13.40;99.90;;;;;;5141768;28;20059;-78
2022/05/07 07:05:17;;;;;;;3.35;3.15;;;13.50;99.90;;;;;;5151951;28;20049;-77
2022/05/07 07:07:51;;;;;;;3.70;3.40;;;13.50;99.90;;;;;;5177266;28;20037;-80
2022/05/07 07:10:22;;;;;;;;;;;13.50;99.90;;;;;;5169774;28;20564;-79
2022/05/07 07:12:53;;;;;;;3.88;3.67;;;13.50;99.90;;;;;;5179404;28;19905;-76
2022/05/07 07:21:05;;;;;;;4.55;4.22;;;13.40;99.90;;;;;;5174797;28;20044;-77
2022/05/07 07:23:39;;;;;;;2.38;2.28;;;13.50;99.90;;;;;;5179140;28;20046;-77
2022/05/07 07:26:10;;;;;;;1.33;1.33;;;13.50;99.90;;;;;;5143032;28;20034;-80
2022/05/07 07:28:41;;;;;;;1.67;1.58;;;13.70;99.90;;;;;;5168202;28;20040;-79
2022/05/07 07:31:13;;;;;;;2.35;2.25;;;13.70;99.90;;;;;;5167989;28;20026;-78
2022/05/07 07:42:14;;;;;;;1.17;1.17;;;14.20;99.90;;;;;;5178505;28;20028;-79
2022/05/07 07:47:56;;;;;;;3.00;2.42;;;14.50;99.90;;;;;;5189398;28;20052;-80
2022/05/07 07:59:00;;;;;;;2.05;1.90;;;14.70;99.90;;;;;;5184706;28;20041;-79
2022/05/07 08:01:32;;;;;;;1.63;1.58;;;14.90;99.90;;;;;;5169307;28;20493;-78
2022/05/07 08:04:06;;;;;;;1.20;1.20;;;15.00;99.90;;;;;;5182422;28;20033;-78
2022/05/07 08:06:38;;;;;;;4.00;3.33;;;15.20;99.90;;;;;;5158733;28;20053;-78
2022/05/07 08:11:59;;;;;;;2.40;2.22;;;15.30;99.90;;;;;;5178707;28;20040;-79
2022/05/07 08:14:37;;;;;;;1.30;1.30;;;15.50;99.90;;;;;;5187904;28;20030;-80
2022/05/07 08:17:08;;;;;;;2.53;2.42;;;15.60;99.90;;;;;;5169239;28;20028;-79
2022/05/07 08:19:43;;;;;;;1.70;1.70;;;15.50;99.90;;;;;;5164189;28;20047;-79
2022/05/07 08:22:16;;;;;;;2.25;2.15;;;15.40;99.90;;;;;;5161656;28;20022;-79
2022/05/07 08:24:49;;;;;;;3.47;2.35;;;15.50;99.90;;;;;;5180823;28;20032;-79
2022/05/07 08:27:23;;;;;;;1.63;1.58;;;15.70;99.90;;;;;;5186936;28;20036;-79
2022/05/07 08:30:00;;;;;;;3.38;3.17;;;15.90;99.90;;;;;;5186456;28;20026;-78
2022/05/07 08:32:31;;;;;;;1.77;1.67;;;16.20;99.90;;;;;;5176418;28;20044;-78
2022/05/07 08:35:04;;;;;;;1.17;1.17;;;16.80;99.90;;;;;;5152972;28;20029;-80
2022/05/07 08:37:36;;;;;;;1.75;1.67;;;17.00;99.90;;;;;;5184548;28;20028;-78
2022/05/07 08:40:13;;;;;;;2.20;2.10;;;16.80;99.90;;;;;;5165201;28;20037;-76
2022/05/07 08:42:45;;;;;;;2.03;1.92;;;16.70;99.90;;;;;;5178964;28;20026;-78
2022/05/07 08:45:16;;;;;;;2.22;2.13;;;16.90;99.90;;;;;;5200926;28;20228;-80
2022/05/07 08:47:52;;;;;;;1.85;1.58;;;17.20;99.90;;;;;;5196592;28;20048;-76
2022/05/07 08:50:26;;;;;;;2.00;1.90;;;17.40;99.90;;;;;;5176976;28;20156;-77
2022/05/07 08:52:59;;;;;;;1.27;1.27;;;17.70;99.90;;;;;;5197360;28;20018;-74
2022/05/07 08:55:41;;;;;;;1.88;1.77;;;17.80;99.90;;;;;;5196434;28;20030;-74
2022/05/07 08:58:18;;;;;;;1.98;1.88;;;18.30;99.90;;;;;;5174568;28;20034;-76
2022/05/07 09:00:52;;;;;;;1.25;1.25;;;18.70;99.90;;;;;;5155267;28;20030;-74
2022/05/07 09:03:24;;;;;;;1.10;1.10;;;18.80;99.90;;;;;;5188311;28;20033;-79
2022/05/07 09:05:57;;;;;;;1.75;1.70;;;18.60;99.90;;;;;;5173756;28;20244;-78
2022/05/07 09:08:29;;;;;;;1.75;1.65;;;18.70;99.90;;;;;;5188490;28;20526;-74
2022/05/07 09:11:01;;;;;;;1.40;1.40;;;18.60;99.90;;;;;;5171675;28;20036;-77
2022/05/07 09:13:36;;;;;;;1.65;1.52;;;18.40;99.90;;;;;;5169428;28;20140;-75
2022/05/07 09:16:08;;;;;;;1.77;1.67;;;18.10;99.90;;;;;;5184665;28;20014;-77
2022/05/07 09:18:47;;;;;;;1.80;1.33;;;17.90;99.90;;;;;;5169401;28;20044;-77
2022/05/07 09:21:25;;;;;;;2.35;2.25;;;17.40;99.90;;;;;;5169442;28;20457;-79
2022/05/07 09:24:05;;;;;;;1.42;1.42;;;17.40;99.90;;;;;;5165965;28;20026;-79
2022/05/07 09:26:43;;;;;;;2.50;1.88;;;18.10;99.90;;;;;;5174073;28;20484;-75
2022/05/07 09:29:15;;;;;;;0.90;0.90;;;18.70;99.90;;;;;;5159014;28;20038;-78
2022/05/07 09:31:48;;;;;;;1.60;1.58;;;18.00;99.90;;;;;;5175542;28;20026;-79
2022/05/07 09:37:20;;;;;;;0.60;0.60;;;18.00;99.90;;;;;;5181066;28;20022;-77
2022/05/07 09:39:52;;;;;;;1.77;1.48;;;18.20;99.90;;;;;;5181288;28;20026;-77
2022/05/07 09:42:24;;;;;;;1.10;1.10;;;18.40;99.90;;;;;;5173471;28;20323;-77
2022/05/07 09:44:56;;;;;;;1.75;1.65;;;18.40;99.90;;;;;;5149837;28;20068;-76
2022/05/07 09:47:37;;;;;;;1.17;1.17;;;18.00;99.90;;;;;;5186080;28;20081;-78
2022/05/07 09:50:22;;;;;;;2.33;2.22;;;18.00;99.90;;;;;;5173054;28;20034;-78
2022/05/07 09:58:41;;;;;;;1.60;1.60;;;18.00;99.90;;;;;;5153673;28;20045;-77
2022/05/07 10:01:26;;;;;;;1.27;1.27;;;18.00;99.90;;;;;;5172648;28;20064;-79
2022/05/07 10:04:26;;;;;;;1.52;1.52;;;18.40;99.90;;;;;;5180233;28;20038;-78
2022/05/07 10:07:16;;;;;;;2.22;1.95;;;18.70;99.90;;;;;;5135453;28;20132;-75
2022/05/07 10:10:11;;;;;;;1.77;1.70;;;18.80;99.90;;;;;;5152180;28;20034;-79
2022/05/07 10:12:47;;;;;;;;;;;19.00;99.90;;;;;;5149520;28;20038;-78
2022/05/07 10:15:26;;;;;;;0.80;0.80;;;19.00;99.90;;;;;;5163783;28;19920;-79
2022/05/07 10:18:07;;;;;;;2.92;2.72;;;19.10;99.90;;;;;;5164473;28;20228;-79
2022/05/07 10:20:43;;;;;;;2.08;1.98;;;19.00;99.90;;;;;;5167922;28;20030;-77
2022/05/07 10:23:30;;;;;;;1.83;1.73;;;19.00;99.90;;;;;;5166399;28;20026;-80
2022/05/07 10:26:04;;;;;;;0.80;0.80;;;19.20;99.90;;;;;;5158435;28;20036;-77
2022/05/07 10:28:42;;;;;;;2.47;2.38;;;18.90;99.90;;;;;;5162817;28;20026;-80
2022/05/07 10:31:27;;;;;;;1.95;1.83;;;18.70;99.90;;;;;;5176184;28;20040;-80
2022/05/07 10:34:00;;;;;;;1.98;1.88;;;18.80;99.90;;;;;;5173355;28;20022;-78
2022/05/07 10:36:37;;;;;;;1.45;1.45;;;18.90;99.90;;;;;;5152409;28;20037;-78
2022/05/07 10:39:09;;;;;;;1.75;1.65;;;19.10;99.90;;;;;;5133413;28;20045;-79
2022/05/07 10:41:52;;;;;;;1.90;1.80;;;19.10;99.90;;;;;;5163472;28;20204;-78
2022/05/07 10:44:35;;;;;;;2.33;2.22;;;18.50;99.90;;;;;;5147527;28;20243;-79
2022/05/07 10:47:11;;;;;;;1.27;1.27;;;18.20;99.90;;;;;;5166481;28;20026;-79
2022/05/07 10:50:14;;;;;;;1.45;1.38;;;18.10;99.90;;;;;;5145368;28;20025;-77
2022/05/07 10:52:55;;;;;;;4.53;1.80;;;17.90;99.90;;;;;;5161018;28;20030;-76
2022/05/07 10:55:29;;;;;;;1.85;1.75;;;17.70;99.90;;;;;;5146192;28;20033;-77
2022/05/07 10:58:01;;;;;;;0.80;0.80;;;17.80;99.90;;;;;;5155266;28;20045;-78
2022/05/07 11:00:37;;;;;;;2.10;2.00;;;17.60;99.90;;;;;;5145725;28;20029;-79
2022/05/07 11:03:12;;;;;;;0.60;0.60;;;17.70;99.90;;;;;;5150579;28;20022;-78
2022/05/07 11:06:00;;;;;;;1.30;1.30;;;17.70;99.90;;;;;;5153815;28;20046;-79
2022/05/07 11:08:35;;;;;;;2.08;1.98;;;18.10;99.90;;;;;;5168761;28;20038;-77
2022/05/07 11:11:08;;;;;;;0.90;0.90;;;18.90;99.90;;;;;;5165690;28;20050;-79
2022/05/07 11:13:55;;;;;;;1.40;1.30;;;19.40;99.90;;;;;;5181132;28;20026;-79
2022/05/07 11:16:26;;;;;;;2.15;2.05;;;19.30;99.90;;;;;;5171603;28;20029;-78
2022/05/07 11:18:57;;;;;;;1.83;1.77;;;18.90;99.90;;;;;;5152346;28;20030;-78
2022/05/07 11:21:35;;;;;;;1.30;1.27;;;18.80;99.90;;;;;;5187019;28;20036;-80
2022/05/07 11:24:07;;;;;;;1.48;1.38;;;18.70;99.90;;;;;;5156423;28;20038;-79
2022/05/07 11:26:38;;;;;;;1.23;1.23;;;18.60;99.90;;;;;;5169197;28;20044;-80
2022/05/07 11:29:12;;;;;;;1.80;1.70;;;18.80;99.90;;;;;;5168301;28;20033;-77
2022/05/07 11:31:43;;;;;;;2.10;1.92;;;18.80;99.90;;;;;;5191217;28;20060;-79
2022/05/07 11:34:37;;;;;;;1.75;1.55;;;18.60;99.90;;;;;;5166913;28;20040;-77
2022/05/07 11:37:16;;;;;;;1.67;1.58;;;18.70;99.90;;;;;;5172988;28;20040;-78
2022/05/07 11:40:03;;;;;;;1.13;1.13;;;19.40;99.90;;;;;;5169861;28;20585;-75
2022/05/07 11:42:35;;;;;;;1.08;1.08;;;19.60;99.90;;;;;;5183644;28;20030;-79
2022/05/07 11:45:30;;;;;;;2.38;2.22;;;18.80;99.90;;;;;;5169420;28;20030;-76
2022/05/07 11:48:06;;;;;;;1.38;1.27;;;19.00;99.90;;;;;;5187741;28;20132;-77
2022/05/07 11:51:02;;;;;;;1.27;1.27;;;20.00;99.90;;;;;;5200715;28;20030;-78
2022/05/07 11:53:37;;;;;;;1.08;1.08;;;20.00;99.90;;;;;;5184494;28;20037;-78
2022/05/07 11:56:10;;;;;;;0.68;0.68;;;19.60;99.90;;;;;;5167466;28;20365;-79
2022/05/07 11:58:47;;;;;;;1.10;1.10;;;19.60;99.90;;;;;;5185942;28;20449;-78
2022/05/07 12:01:20;;;;;;;1.27;1.27;;;19.50;99.90;;;;;;5187571;28;20024;-78
2022/05/07 12:03:55;;;;;;;1.23;1.23;;;19.10;99.90;;;;;;5169643;28;20563;-80
2022/05/07 12:06:31;;;;;;;3.08;2.88;;;19.20;99.90;;;;;;5159203;28;20398;-79
2022/05/07 12:09:13;;;;;;;1.40;1.40;;;19.50;99.90;;;;;;5171119;28;20084;-77
2022/05/07 12:11:48;;;;;;;1.23;1.23;;;19.70;99.90;;;;;;5169348;28;20038;-80
2022/05/07 12:14:23;;;;;;;1.20;1.20;;;19.50;99.90;;;;;;5165446;28;20215;-78
2022/05/07 12:19:44;;;;;;;1.33;1.33;;;19.00;99.90;;;;;;5167262;28;20044;-80
2022/05/07 12:30:49;;;;;;;2.28;1.30;;;19.90;99.90;;;;;;5186605;28;20050;-77
2022/05/07 12:33:25;;;;;;;1.48;1.38;;;19.50;99.90;;;;;;5186581;28;20037;-79
2022/05/07 12:35:58;;;;;;;0.70;0.70;;;19.30;99.90;;;;;;5171331;28;20034;-77
2022/05/07 12:38:29;;;;;;;0.95;0.95;;;19.70;99.90;;;;;;5164795;28;20034;-77
2022/05/07 12:41:00;;;;;;;0.88;0.88;;;19.80;99.90;;;;;;5155978;28;20110;-76
2022/05/07 12:43:34;;;;;;;1.60;1.50;;;19.80;99.90;;;;;;5193222;28;20060;-74
2022/05/07 12:46:09;;;;;;;0.90;0.90;;;19.90;99.90;;;;;;5194906;28;20028;-76
2022/05/07 12:48:40;;;;;;;1.73;1.63;;;19.40;99.90;;;;;;5192860;28;20033;-76
2022/05/07 12:51:12;;;;;;;0.75;0.75;;;20.10;99.90;;;;;;5191119;28;20035;-80
2022/05/07 12:53:46;;;;;;;1.10;1.02;;;20.80;99.90;;;;;;5190914;28;20351;-80
2022/05/07 12:56:25;;;;;;;1.77;1.67;;;20.90;99.90;;;;;;5180809;28;20033;-81
2022/05/07 12:58:57;;;;;;;2.17;2.08;;;20.40;99.90;;;;;;5165490;28;20022;-81
2022/05/07 13:01:29;;;;;;;1.85;1.63;;;19.80;99.90;;;;;;5138383;28;20069;-79
2022/05/07 13:04:00;;;;;;;2.03;1.90;;;20.20;99.90;;;;;;5188206;28;20028;-79
2022/05/07 13:06:31;;;;;;;1.30;1.10;;;20.60;99.90;;;;;;5174494;28;20262;-80
2022/05/07 13:09:06;;;;;;;0.73;0.73;;;20.60;99.90;;;;;;5184689;28;20029;-80
2022/05/07 13:11:37;;;;;;;1.65;1.25;;;20.80;99.90;;;;;;5169236;28;20037;-77
2022/05/07 13:14:11;;;;;;;1.02;1.02;;;20.90;99.90;;;;;;5160260;28;20022;-83
2022/05/07 13:16:43;;;;;;;0.80;0.80;;;21.70;99.90;;;;;;5176380;28;20027;-83
2022/05/07 13:19:15;;;;;;;1.00;1.00;;;22.60;99.90;;;;;;5179220;28;20025;-80
2022/05/07 13:21:47;;;;;;;1.05;1.05;;;23.00;99.90;;;;;;5186682;28;20036;-80
2022/05/07 13:24:18;;;;;;;1.13;1.13;;;22.60;99.90;;;;;;5187471;28;20034;-77
2022/05/07 13:26:49;;;;;;;0.93;0.93;;;22.30;99.90;;;;;;5194976;28;20029;-77
2022/05/07 13:29:24;;;;;;;1.17;1.17;;;22.00;99.90;;;;;;5175106;28;20041;-79
2022/05/07 13:32:00;;;;;;;1.20;1.20;;;21.30;99.90;;;;;;5177385;28;20037;-79
2022/05/07 13:34:35;;;;;;;0.68;0.68;;;20.80;99.90;;;;;;5158562;28;20026;-78
2022/05/07 13:37:06;;;;;;;1.08;1.08;;;21.00;99.90;;;;;;5179195;28;20022;-80
2022/05/07 13:39:37;;;;;;;1.00;1.00;;;21.20;99.90;;;;;;5177737;28;20460;-78
2022/05/07 13:42:12;;;;;;;0.68;0.68;;;22.00;99.90;;;;;;5184676;28;20255;-79
2022/05/07 13:44:43;;;;;;;0.80;0.80;;;22.40;99.90;;;;;;5183428;28;20034;-79
2022/05/07 13:47:15;;;;;;;1.25;1.25;;;21.80;99.90;;;;;;5185589;28;20040;-77
2022/05/07 13:49:49;;;;;;;1.27;1.23;;;21.40;99.90;;;;;;5150530;28;20034;-79
2022/05/07 13:52:20;;;;;;;0.73;0.73;;;21.00;99.90;;;;;;5166665;28;20052;-78
2022/05/07 13:54:51;;;;;;;0.88;0.88;;;20.20;99.90;;;;;;5184056;28;20026;-79
2022/05/07 13:57:23;;;;;;;0.63;0.63;;;20.00;99.90;;;;;;5182287;28;20044;-79
2022/05/07 13:59:56;;;;;;;1.73;1.63;;;20.30;99.90;;;;;;5132965;28;20033;-77
2022/05/07 14:02:27;;;;;;;1.58;1.48;;;20.80;99.90;;;;;;5182815;28;20052;-79
2022/05/07 14:05:05;;;;;;;1.48;1.40;;;20.80;99.90;;;;;;5173057;28;20054;-78
2022/05/07 14:07:37;;;;;;;1.80;1.70;;;20.80;99.90;;;;;;5165203;28;20030;-79
2022/05/07 14:10:12;;;;;;;1.00;1.00;;;21.20;99.90;;;;;;5182158;28;20559;-78
2022/05/07 14:12:46;;;;;;;1.00;1.00;;;21.50;99.90;;;;;;5181458;28;20036;-79
2022/05/07 14:15:20;;;;;;;0.85;0.85;;;21.40;99.90;;;;;;5177294;28;20028;-79
2022/05/07 14:17:52;;;;;;;1.58;1.55;;;21.50;99.90;;;;;;5142657;28;20029;-78
2022/05/07 14:20:23;;;;;;;1.05;1.05;;;21.50;99.90;;;;;;5161868;28;20042;-79
2022/05/07 14:22:57;;;;;;;1.58;1.50;;;21.50;99.90;;;;;;5182098;28;20022;-79
2022/05/07 14:25:29;;;;;;;1.00;1.00;;;21.40;99.90;;;;;;5180362;28;20266;-79
2022/05/07 14:28:00;;;;;;;0.85;0.85;;;21.10;99.90;;;;;;5162627;28;20344;-79